sensor_id;sensor_type;location;lat;lon;timestamp;temperature;humidity
34740;DHT22;20967;48.442;9.994;2023-05-10T00:01:46;17.60;99.90
34740;DHT22;20967;48.442;9.994;2023-05-10T00:04:14;17.50;99.90
34740;DHT22;20967;48.442;9.994;2023-05-10T00:06:46;17.50;99.90
34740;DHT22;20967;48.442;9.994;2023-05-10T00:09:14;17.50;99.90
34740;DHT22;20967;48.442;9.994;2023-05-10T00:11:42;17.50;99.90
34740;DHT22;20967;48.442;9.994;2023-05-10T00:14:10;17.50;99.90
34740;DHT22;20967;48.442;9.994;2023-05-10T00:16:38;17.50;99.90
34740;DHT22;20967;48.442;9.994;2023-05-10T00:19:06;17.50;99.90
34740;DHT22;20967;48.442;9.994;2023-05-10T00:21:34;17.50;99.90
34740;DHT22;20967;48.442;9.994;2023-05-10T00:24:02;17.50;99.90
34740;DHT22;20967;48.442;9.994;2023-05-10T00:26:30;17.50;99.90
34740;DHT22;20967;48.442;9.994;2023-05-10T00:28:58;17.50;99.90
34740;DHT22;20967;48.442;9.994;2023-05-10T00:31:26;17.50;99.90
34740;DHT22;20967;48.442;9.994;2023-05-10T00:33:54;18.40;99.90
34740;DHT22;20967;48.442;9.994;2023-05-10T00:36:22;18.20;99.90
34740;DHT22;20967;48.442;9.994;2023-05-10T00:38:50;18.00;99.90
34740;DHT22;20967;48.442;9.994;2023-05-10T00:41:18;17.50;99.90
34740;DHT22;20967;48.442;9.994;2023-05-10T00:43:45;17.50;99.90
34740;DHT22;20967;48.442;9.994;2023-05-10T00:46:14;17.40;99.90
34740;DHT22;20967;48.442;9.994;2023-05-10T00:48:43;17.40;99.90
34740;DHT22;20967;48.442;9.994;2023-05-10T00:51:13;17.40;99.90
34740;DHT22;20967;48.442;9.994;2023-05-10T00:53:43;18.10;99.90
34740;DHT22;20967;48.442;9.994;2023-05-10T00:56:15;18.10;99.90
34740;DHT22;20967;48.442;9.994;2023-05-10T00:58:43;18.00;99.90
34740;DHT22;20967;48.442;9.994;2023-05-10T01:01:12;18.00;99.90
34740;DHT22;20967;48.442;9.994;2023-05-10T01:03:40;18.00;99.90
34740;DHT22;20967;48.442;9.994;2023-05-10T01:06:08;18.10;99.90
34740;DHT22;20967;48.442;9.994;2023-05-10T01:08:36;18.00;99.90
34740;DHT22;20967;48.442;9.994;2023-05-10T01:11:04;18.00;99.90
34740;DHT22;20967;48.442;9.994;2023-05-10T01:13:37;18.10;99.90
34740;DHT22;20967;48.442;9.994;2023-05-10T01:16:05;18.00;99.90
34740;DHT22;20967;48.442;9.994;2023-05-10T01:18:38;17.90;99.90
34740;DHT22;20967;48.442;9.994;2023-05-10T01:21:28;18.00;99.90
34740;DHT22;20967;48.442;9.994;2023-05-10T01:35:02;17.90;99.90
34740;DHT22;20967;48.442;9.994;2023-05-10T01:37:40;17.90;99.90
34740;DHT22;20967;48.442;9.994;2023-05-10T01:40:08;18.00;99.90
34740;DHT22;20967;48.442;9.994;2023-05-10T01:42:43;18.00;99.90
34740;DHT22;20967;48.442;9.994;2023-05-10T01:45:21;17.90;99.90
34740;DHT22;20967;48.442;9.994;2023-05-10T01:47:50;17.90;99.90
34740;DHT22;20967;48.442;9.994;2023-05-10T01:50:20;17.90;99.90
34740;DHT22;20967;48.442;9.994;2023-05-10T01:52:51;17.80;99.90
34740;DHT22;20967;48.442;9.994;2023-05-10T01:55:21;17.80;99.90
34740;DHT22;20967;48.442;9.994;2023-05-10T01:57:52;17.60;99.90
34740;DHT22;20967;48.442;9.994;2023-05-10T02:00:22;17.70;99.90
34740;DHT22;20967;48.442;9.994;2023-05-10T02:02:51;17.60;99.90
34740;DHT22;20967;48.442;9.994;2023-05-10T02:05:20;17.60;99.90
34740;DHT22;20967;48.442;9.994;2023-05-10T02:07:49;17.60;99.90
34740;DHT22;20967;48.442;9.994;2023-05-10T02:10:19;17.50;99.90
34740;DHT22;20967;48.442;9.994;2023-05-10T02:12:48;17.40;99.90
34740;DHT22;20967;48.442;9.994;2023-05-10T02:15:20;17.20;99.90
34740;DHT22;20967;48.442;9.994;2023-05-10T02:17:48;17.10;99.90
34740;DHT22;20967;48.442;9.994;2023-05-10T02:20:17;17.10;99.90
34740;DHT22;20967;48.442;9.994;2023-05-10T02:22:48;17.00;99.90
34740;DHT22;20967;48.442;9.994;2023-05-10T02:25:19;17.00;99.90
34740;DHT22;20967;48.442;9.994;2023-05-10T02:27:48;16.90;99.90
34740;DHT22;20967;48.442;9.994;2023-05-10T02:30:17;17.00;99.90
34740;DHT22;20967;48.442;9.994;2023-05-10T02:32:47;17.10;99.90
34740;DHT22;20967;48.442;9.994;2023-05-10T02:35:16;16.90;99.90
34740;DHT22;20967;48.442;9.994;2023-05-10T02:37:45;17.00;99.90
34740;DHT22;20967;48.442;9.994;2023-05-10T02:40:16;17.00;99.90
34740;DHT22;20967;48.442;9.994;2023-05-10T02:42:45;16.90;99.90
34740;DHT22;20967;48.442;9.994;2023-05-10T02:45:18;16.90;99.90
34740;DHT22;20967;48.442;9.994;2023-05-10T02:47:46;16.90;99.90
34740;DHT22;20967;48.442;9.994;2023-05-10T02:50:14;16.90;99.90
34740;DHT22;20967;48.442;9.994;2023-05-10T02:52:47;16.90;99.90
34740;DHT22;20967;48.442;9.994;2023-05-10T02:55:16;16.90;99.90
34740;DHT22;20967;48.442;9.994;2023-05-10T02:57:54;16.80;99.90
34740;DHT22;20967;48.442;9.994;2023-05-10T03:00:21;16.80;99.90
34740;DHT22;20967;48.442;9.994;2023-05-10T03:02:49;16.90;99.90
34740;DHT22;20967;48.442;9.994;2023-05-10T03:05:17;16.80;99.90
34740;DHT22;20967;48.442;9.994;2023-05-10T03:07:45;16.90;99.90
34740;DHT22;20967;48.442;9.994;2023-05-10T03:10:13;16.80;99.90
34740;DHT22;20967;48.442;9.994;2023-05-10T03:15:27;16.80;99.90
34740;DHT22;20967;48.442;9.994;2023-05-10T03:20:41;16.70;99.90
34740;DHT22;20967;48.442;9.994;2023-05-10T03:25:54;16.60;99.90
34740;DHT22;20967;48.442;9.994;2023-05-10T03:28:24;16.60;99.90
34740;DHT22;20967;48.442;9.994;2023-05-10T03:30:53;16.60;99.90
34740;DHT22;20967;48.442;9.994;2023-05-10T03:33:21;16.50;99.90
34740;DHT22;20967;48.442;9.994;2023-05-10T03:35:49;16.50;99.90
34740;DHT22;20967;48.442;9.994;2023-05-10T03:38:17;16.40;99.90
34740;DHT22;20967;48.442;9.994;2023-05-10T03:40:44;16.40;99.90
34740;DHT22;20967;48.442;9.994;2023-05-10T03:43:12;16.30;99.90
34740;DHT22;20967;48.442;9.994;2023-05-10T03:45:40;16.30;99.90
34740;DHT22;20967;48.442;9.994;2023-05-10T03:48:08;16.20;99.90
34740;DHT22;20967;48.442;9.994;2023-05-10T03:50:35;16.20;99.90
34740;DHT22;20967;48.442;9.994;2023-05-10T03:53:03;16.20;99.90
34740;DHT22;20967;48.442;9.994;2023-05-10T03:55:31;16.20;99.90
34740;DHT22;20967;48.442;9.994;2023-05-10T03:58:00;16.10;99.90
34740;DHT22;20967;48.442;9.994;2023-05-10T04:00:28;16.10;99.90
34740;DHT22;20967;48.442;9.994;2023-05-10T04:02:56;16.00;99.90
34740;DHT22;20967;48.442;9.994;2023-05-10T04:05:24;16.00;99.90
34740;DHT22;20967;48.442;9.994;2023-05-10T04:07:52;16.00;99.90
34740;DHT22;20967;48.442;9.994;2023-05-10T04:10:20;16.00;99.90
34740;DHT22;20967;48.442;9.994;2023-05-10T04:12:48;15.90;99.90
34740;DHT22;20967;48.442;9.994;2023-05-10T04:15:15;16.00;99.90
34740;DHT22;20967;48.442;9.994;2023-05-10T04:17:43;16.10;99.90
34740;DHT22;20967;48.442;9.994;2023-05-10T04:20:11;16.10;99.90
34740;DHT22;20967;48.442;9.994;2023-05-10T04:22:39;16.00;99.90
34740;DHT22;20967;48.442;9.994;2023-05-10T04:25:08;16.00;99.90
34740;DHT22;20967;48.442;9.994;2023-05-10T04:27:35;16.00;99.90
34740;DHT22;20967;48.442;9.994;2023-05-10T04:30:04;16.00;99.90
34740;DHT22;20967;48.442;9.994;2023-05-10T04:32:32;16.00;99.90
34740;DHT22;20967;48.442;9.994;2023-05-10T04:34:59;16.00;99.90
34740;DHT22;20967;48.442;9.994;2023-05-10T04:37:29;16.10;99.90
34740;DHT22;20967;48.442;9.994;2023-05-10T04:39:57;16.00;99.90
34740;DHT22;20967;48.442;9.994;2023-05-10T04:42:26;16.10;99.90
34740;DHT22;20967;48.442;9.994;2023-05-10T04:44:54;16.10;99.90
34740;DHT22;20967;48.442;9.994;2023-05-10T04:47:22;16.20;99.90
34740;DHT22;20967;48.442;9.994;2023-05-10T04:49:49;16.10;99.90
34740;DHT22;20967;48.442;9.994;2023-05-10T04:52:17;16.20;99.90
34740;DHT22;20967;48.442;9.994;2023-05-10T04:54:45;16.30;99.90
34740;DHT22;20967;48.442;9.994;2023-05-10T04:57:13;16.40;99.90
34740;DHT22;20967;48.442;9.994;2023-05-10T04:59:41;16.50;99.90
34740;DHT22;20967;48.442;9.994;2023-05-10T05:02:09;16.70;99.90
34740;DHT22;20967;48.442;9.994;2023-05-10T05:04:37;16.70;99.90
34740;DHT22;20967;48.442;9.994;2023-05-10T05:07:04;16.80;99.90
34740;DHT22;20967;48.442;9.994;2023-05-10T05:09:32;16.90;99.90
34740;DHT22;20967;48.442;9.994;2023-05-10T05:12:00;17.00;99.90
34740;DHT22;20967;48.442;9.994;2023-05-10T05:14:28;17.00;99.90
34740;DHT22;20967;48.442;9.994;2023-05-10T05:16:55;17.10;99.90
34740;DHT22;20967;48.442;9.994;2023-05-10T05:19:23;17.20;99.90
34740;DHT22;20967;48.442;9.994;2023-05-10T05:21:51;17.20;99.90
34740;DHT22;20967;48.442;9.994;2023-05-10T05:24:19;17.20;99.90
34740;DHT22;20967;48.442;9.994;2023-05-10T05:26:47;17.20;99.90
34740;DHT22;20967;48.442;9.994;2023-05-10T05:29:15;17.30;99.90
34740;DHT22;20967;48.442;9.994;2023-05-10T05:31:43;17.30;99.90
34740;DHT22;20967;48.442;9.994;2023-05-10T05:34:10;17.30;99.90
34740;DHT22;20967;48.442;9.994;2023-05-10T05:36:38;17.50;99.90
34740;DHT22;20967;48.442;9.994;2023-05-10T05:39:06;17.50;99.90
34740;DHT22;20967;48.442;9.994;2023-05-10T05:41:34;17.30;99.90
34740;DHT22;20967;48.442;9.994;2023-05-10T05:44:01;17.50;99.90
34740;DHT22;20967;48.442;9.994;2023-05-10T05:46:29;17.60;99.90
34740;DHT22;20967;48.442;9.994;2023-05-10T05:48:57;17.60;99.90
34740;DHT22;20967;48.442;9.994;2023-05-10T05:51:25;17.70;99.90
34740;DHT22;20967;48.442;9.994;2023-05-10T05:53:52;17.60;99.90
34740;DHT22;20967;48.442;9.994;2023-05-10T05:56:20;17.60;99.90
34740;DHT22;20967;48.442;9.994;2023-05-10T05:58:50;17.60;99.90
34740;DHT22;20967;48.442;9.994;2023-05-10T06:01:18;17.70;99.90
34740;DHT22;20967;48.442;9.994;2023-05-10T06:03:46;17.60;99.90
34740;DHT22;20967;48.442;9.994;2023-05-10T06:06:14;17.70;99.90
34740;DHT22;20967;48.442;9.994;2023-05-10T06:08:41;17.80;99.90
34740;DHT22;20967;48.442;9.994;2023-05-10T06:11:09;17.80;99.90
34740;DHT22;20967;48.442;9.994;2023-05-10T06:13:37;17.80;99.90
34740;DHT22;20967;48.442;9.994;2023-05-10T06:16:05;17.90;99.90
34740;DHT22;20967;48.442;9.994;2023-05-10T06:18:33;17.90;99.90
34740;DHT22;20967;48.442;9.994;2023-05-10T06:21:01;18.00;99.90
34740;DHT22;20967;48.442;9.994;2023-05-10T06:23:29;18.00;99.90
34740;DHT22;20967;48.442;9.994;2023-05-10T06:25:56;18.10;99.90
34740;DHT22;20967;48.442;9.994;2023-05-10T06:28:24;18.00;99.90
34740;DHT22;20967;48.442;9.994;2023-05-10T06:30:52;18.20;99.90
34740;DHT22;20967;48.442;9.994;2023-05-10T06:33:20;18.20;99.90
34740;DHT22;20967;48.442;9.994;2023-05-10T06:35:47;18.30;99.90
34740;DHT22;20967;48.442;9.994;2023-05-10T06:38:15;18.30;99.90
34740;DHT22;20967;48.442;9.994;2023-05-10T06:40:43;18.40;99.90
34740;DHT22;20967;48.442;9.994;2023-05-10T06:43:11;18.50;99.90
34740;DHT22;20967;48.442;9.994;2023-05-10T06:45:39;18.60;99.90
34740;DHT22;20967;48.442;9.994;2023-05-10T06:48:07;18.50;99.90
34740;DHT22;20967;48.442;9.994;2023-05-10T06:50:35;18.70;99.90
34740;DHT22;20967;48.442;9.994;2023-05-10T06:53:03;18.70;99.90
34740;DHT22;20967;48.442;9.994;2023-05-10T06:55:33;19.00;99.90
34740;DHT22;20967;48.442;9.994;2023-05-10T06:58:00;19.20;99.90
34740;DHT22;20967;48.442;9.994;2023-05-10T07:00:28;19.40;99.90
34740;DHT22;20967;48.442;9.994;2023-05-10T07:02:56;19.40;99.90
34740;DHT22;20967;48.442;9.994;2023-05-10T07:05:25;19.30;99.90
34740;DHT22;20967;48.442;9.994;2023-05-10T07:07:54;19.20;99.90
34740;DHT22;20967;48.442;9.994;2023-05-10T07:10:22;19.30;99.90
34740;DHT22;20967;48.442;9.994;2023-05-10T07:12:50;19.30;99.90
34740;DHT22;20967;48.442;9.994;2023-05-10T07:15:17;19.40;99.90
34740;DHT22;20967;48.442;9.994;2023-05-10T07:17:45;19.50;99.90
34740;DHT22;20967;48.442;9.994;2023-05-10T07:20:13;19.60;99.90
34740;DHT22;20967;48.442;9.994;2023-05-10T07:22:41;19.70;99.90
34740;DHT22;20967;48.442;9.994;2023-05-10T07:25:09;19.80;99.90
34740;DHT22;20967;48.442;9.994;2023-05-10T07:27:37;19.80;99.90
34740;DHT22;20967;48.442;9.994;2023-05-10T07:30:05;19.80;99.90
34740;DHT22;20967;48.442;9.994;2023-05-10T07:32:33;19.50;99.90
34740;DHT22;20967;48.442;9.994;2023-05-10T07:35:01;19.40;99.90
34740;DHT22;20967;48.442;9.994;2023-05-10T07:37:29;19.30;99.90
34740;DHT22;20967;48.442;9.994;2023-05-10T07:39:57;19.30;99.90
34740;DHT22;20967;48.442;9.994;2023-05-10T07:42:25;19.00;99.90
34740;DHT22;20967;48.442;9.994;2023-05-10T07:44:53;19.00;99.90
34740;DHT22;20967;48.442;9.994;2023-05-10T07:47:21;19.00;99.90
34740;DHT22;20967;48.442;9.994;2023-05-10T07:49:50;18.90;99.90
34740;DHT22;20967;48.442;9.994;2023-05-10T07:52:17;19.00;99.90
34740;DHT22;20967;48.442;9.994;2023-05-10T07:54:45;19.20;99.90
34740;DHT22;20967;48.442;9.994;2023-05-10T07:57:13;19.20;99.90
34740;DHT22;20967;48.442;9.994;2023-05-10T07:59:43;19.10;99.90
34740;DHT22;20967;48.442;9.994;2023-05-10T08:02:11;19.10;99.90
34740;DHT22;20967;48.442;9.994;2023-05-10T08:04:39;19.30;99.90
34740;DHT22;20967;48.442;9.994;2023-05-10T08:07:07;19.40;99.90
34740;DHT22;20967;48.442;9.994;2023-05-10T08:09:34;19.40;99.90
34740;DHT22;20967;48.442;9.994;2023-05-10T08:12:03;19.40;99.90
34740;DHT22;20967;48.442;9.994;2023-05-10T08:14:31;19.50;99.90
34740;DHT22;20967;48.442;9.994;2023-05-10T08:16:59;19.30;99.90
34740;DHT22;20967;48.442;9.994;2023-05-10T08:19:26;19.30;99.90
34740;DHT22;20967;48.442;9.994;2023-05-10T08:21:54;19.60;99.90
34740;DHT22;20967;48.442;9.994;2023-05-10T08:24:25;19.60;99.90
34740;DHT22;20967;48.442;9.994;2023-05-10T08:26:53;19.50;99.90
34740;DHT22;20967;48.442;9.994;2023-05-10T08:29:20;19.60;99.90
34740;DHT22;20967;48.442;9.994;2023-05-10T08:31:48;19.90;99.90
34740;DHT22;20967;48.442;9.994;2023-05-10T08:34:16;20.10;99.90
34740;DHT22;20967;48.442;9.994;2023-05-10T08:36:43;20.30;99.90
34740;DHT22;20967;48.442;9.994;2023-05-10T08:39:11;20.50;99.90
34740;DHT22;20967;48.442;9.994;2023-05-10T08:41:40;20.40;99.90
34740;DHT22;20967;48.442;9.994;2023-05-10T08:44:09;20.30;99.90
34740;DHT22;20967;48.442;9.994;2023-05-10T08:46:39;20.70;99.90
34740;DHT22;20967;48.442;9.994;2023-05-10T08:49:11;20.70;99.90
34740;DHT22;20967;48.442;9.994;2023-05-10T08:51:43;20.70;99.90
34740;DHT22;20967;48.442;9.994;2023-05-10T08:54:11;20.70;99.90
34740;DHT22;20967;48.442;9.994;2023-05-10T08:56:39;20.70;99.90
34740;DHT22;20967;48.442;9.994;2023-05-10T08:59:07;20.10;99.90
34740;DHT22;20967;48.442;9.994;2023-05-10T09:01:36;20.30;99.90
34740;DHT22;20967;48.442;9.994;2023-05-10T09:04:04;20.50;99.90
34740;DHT22;20967;48.442;9.994;2023-05-10T09:06:33;20.30;99.90
34740;DHT22;20967;48.442;9.994;2023-05-10T09:09:02;20.20;99.90
34740;DHT22;20967;48.442;9.994;2023-05-10T09:11:30;20.70;99.90
34740;DHT22;20967;48.442;9.994;2023-05-10T09:13:58;20.80;99.90
34740;DHT22;20967;48.442;9.994;2023-05-10T09:16:26;20.90;99.90
34740;DHT22;20967;48.442;9.994;2023-05-10T09:18:53;20.90;99.90
34740;DHT22;20967;48.442;9.994;2023-05-10T09:21:21;20.70;99.90
34740;DHT22;20967;48.442;9.994;2023-05-10T09:23:49;20.20;99.90
34740;DHT22;20967;48.442;9.994;2023-05-10T09:26:17;20.30;99.90
34740;DHT22;20967;48.442;9.994;2023-05-10T09:28:55;20.60;99.90
34740;DHT22;20967;48.442;9.994;2023-05-10T09:31:23;20.80;99.90
34740;DHT22;20967;48.442;9.994;2023-05-10T09:33:54;20.80;99.90
34740;DHT22;20967;48.442;9.994;2023-05-10T09:36:22;20.70;99.90
34740;DHT22;20967;48.442;9.994;2023-05-10T09:38:51;21.00;99.90
34740;DHT22;20967;48.442;9.994;2023-05-10T09:41:21;21.00;99.90
34740;DHT22;20967;48.442;9.994;2023-05-10T09:43:49;20.80;99.90
34740;DHT22;20967;48.442;9.994;2023-05-10T09:46:18;20.80;99.90
34740;DHT22;20967;48.442;9.994;2023-05-10T09:48:47;20.80;99.90
34740;DHT22;20967;48.442;9.994;2023-05-10T09:51:24;20.30;99.90
34740;DHT22;20967;48.442;9.994;2023-05-10T09:56:37;20.40;99.90
34740;DHT22;20967;48.442;9.994;2023-05-10T09:59:08;20.40;99.90
34740;DHT22;20967;48.442;9.994;2023-05-10T10:01:37;20.50;99.90
34740;DHT22;20967;48.442;9.994;2023-05-10T10:04:08;20.30;99.90
34740;DHT22;20967;48.442;9.994;2023-05-10T10:06:39;20.40;99.90
34740;DHT22;20967;48.442;9.994;2023-05-10T10:09:08;20.60;99.90
34740;DHT22;20967;48.442;9.994;2023-05-10T10:11:38;20.40;99.90
34740;DHT22;20967;48.442;9.994;2023-05-10T10:14:07;20.50;99.90
34740;DHT22;20967;48.442;9.994;2023-05-10T10:16:35;20.70;99.90
34740;DHT22;20967;48.442;9.994;2023-05-10T10:19:03;20.50;99.90
34740;DHT22;20967;48.442;9.994;2023-05-10T10:21:31;20.70;99.90
34740;DHT22;20967;48.442;9.994;2023-05-10T10:24:00;20.30;99.90
34740;DHT22;20967;48.442;9.994;2023-05-10T10:26:30;20.20;99.90
34740;DHT22;20967;48.442;9.994;2023-05-10T10:29:17;20.40;99.90
34740;DHT22;20967;48.442;9.994;2023-05-10T10:34:21;20.90;99.90
34740;DHT22;20967;48.442;9.994;2023-05-10T10:36:47;21.00;99.90
34740;DHT22;20967;48.442;9.994;2023-05-10T10:39:15;20.40;99.90
34740;DHT22;20967;48.442;9.994;2023-05-10T10:41:51;20.90;99.90
34740;DHT22;20967;48.442;9.994;2023-05-10T10:44:25;20.70;99.90
34740;DHT22;20967;48.442;9.994;2023-05-10T10:47:06;21.10;99.90
34740;DHT22;20967;48.442;9.994;2023-05-10T10:49:48;21.20;99.90
34740;DHT22;20967;48.442;9.994;2023-05-10T10:52:20;20.70;99.90
34740;DHT22;20967;48.442;9.994;2023-05-10T10:55:07;20.80;99.90
34740;DHT22;20967;48.442;9.994;2023-05-10T10:57:50;21.00;99.90
34740;DHT22;20967;48.442;9.994;2023-05-10T11:00:19;20.70;99.90
34740;DHT22;20967;48.442;9.994;2023-05-10T11:02:52;20.90;99.90
34740;DHT22;20967;48.442;9.994;2023-05-10T11:05:39;21.10;99.90
34740;DHT22;20967;48.442;9.994;2023-05-10T11:08:13;21.20;99.90
34740;DHT22;20967;48.442;9.994;2023-05-10T11:10:40;20.70;99.90
34740;DHT22;20967;48.442;9.994;2023-05-10T11:13:09;19.80;99.90
34740;DHT22;20967;48.442;9.994;2023-05-10T11:15:47;20.30;99.90
34740;DHT22;20967;48.442;9.994;2023-05-10T11:18:25;20.30;99.90
34740;DHT22;20967;48.442;9.994;2023-05-10T11:20:54;20.20;99.90
34740;DHT22;20967;48.442;9.994;2023-05-10T11:23:21;20.10;99.90
34740;DHT22;20967;48.442;9.994;2023-05-10T11:25:49;20.30;99.90
34740;DHT22;20967;48.442;9.994;2023-05-10T11:28:18;20.40;99.90
34740;DHT22;20967;48.442;9.994;2023-05-10T11:30:46;20.50;99.90
34740;DHT22;20967;48.442;9.994;2023-05-10T11:33:17;20.60;99.90
34740;DHT22;20967;48.442;9.994;2023-05-10T11:35:46;20.80;99.90
34740;DHT22;20967;48.442;9.994;2023-05-10T11:38:14;21.00;99.90
34740;DHT22;20967;48.442;9.994;2023-05-10T11:40:42;20.50;99.90
34740;DHT22;20967;48.442;9.994;2023-05-10T11:43:10;20.50;99.90
34740;DHT22;20967;48.442;9.994;2023-05-10T11:45:39;20.20;99.90
34740;DHT22;20967;48.442;9.994;2023-05-10T11:48:07;20.30;99.90
34740;DHT22;20967;48.442;9.994;2023-05-10T11:50:35;20.10;99.90
34740;DHT22;20967;48.442;9.994;2023-05-10T11:53:03;20.10;99.90
34740;DHT22;20967;48.442;9.994;2023-05-10T11:55:33;21.00;99.90
34740;DHT22;20967;48.442;9.994;2023-05-10T11:58:01;21.20;99.90
34740;DHT22;20967;48.442;9.994;2023-05-10T12:00:30;21.40;99.90
34740;DHT22;20967;48.442;9.994;2023-05-10T12:02:59;21.20;99.90
34740;DHT22;20967;48.442;9.994;2023-05-10T12:05:28;21.30;99.90
34740;DHT22;20967;48.442;9.994;2023-05-10T12:08:14;21.30;99.90
34740;DHT22;20967;48.442;9.994;2023-05-10T12:10:40;21.10;99.90
34740;DHT22;20967;48.442;9.994;2023-05-10T12:13:12;20.80;99.90
34740;DHT22;20967;48.442;9.994;2023-05-10T12:15:41;21.00;99.90
34740;DHT22;20967;48.442;9.994;2023-05-10T12:18:11;20.70;99.90
34740;DHT22;20967;48.442;9.994;2023-05-10T12:20:39;20.10;99.90
34740;DHT22;20967;48.442;9.994;2023-05-10T12:23:09;19.60;99.90
34740;DHT22;20967;48.442;9.994;2023-05-10T12:25:41;19.70;99.90
34740;DHT22;20967;48.442;9.994;2023-05-10T12:28:09;19.70;99.90
34740;DHT22;20967;48.442;9.994;2023-05-10T12:30:37;19.70;99.90
34740;DHT22;20967;48.442;9.994;2023-05-10T12:33:11;19.40;99.90
34740;DHT22;20967;48.442;9.994;2023-05-10T12:35:49;19.40;99.90
34740;DHT22;20967;48.442;9.994;2023-05-10T12:38:26;19.60;99.90
34740;DHT22;20967;48.442;9.994;2023-05-10T12:41:01;19.40;99.90
34740;DHT22;20967;48.442;9.994;2023-05-10T12:43:29;19.50;99.90
34740;DHT22;20967;48.442;9.994;2023-05-10T12:45:57;19.60;99.90
34740;DHT22;20967;48.442;9.994;2023-05-10T12:48:24;19.60;99.90
34740;DHT22;20967;48.442;9.994;2023-05-10T12:50:52;19.60;99.90
34740;DHT22;20967;48.442;9.994;2023-05-10T12:53:20;19.70;99.90
34740;DHT22;20967;48.442;9.994;2023-05-10T12:55:48;19.60;99.90
34740;DHT22;20967;48.442;9.994;2023-05-10T12:58:16;19.70;99.90
34740;DHT22;20967;48.442;9.994;2023-05-10T13:00:43;19.80;99.90
34740;DHT22;20967;48.442;9.994;2023-05-10T13:03:11;19.90;99.90
34740;DHT22;20967;48.442;9.994;2023-05-10T13:05:39;19.80;99.90
34740;DHT22;20967;48.442;9.994;2023-05-10T13:08:07;19.70;99.90
34740;DHT22;20967;48.442;9.994;2023-05-10T13:10:34;19.40;99.90
34740;DHT22;20967;48.442;9.994;2023-05-10T13:13:02;18.90;99.90
34740;DHT22;20967;48.442;9.994;2023-05-10T13:15:30;17.70;99.90
34740;DHT22;20967;48.442;9.994;2023-05-10T13:17:58;17.40;99.90
34740;DHT22;20967;48.442;9.994;2023-05-10T13:20:26;17.10;99.90
34740;DHT22;20967;48.442;9.994;2023-05-10T13:22:54;16.60;99.90
34740;DHT22;20967;48.442;9.994;2023-05-10T13:25:22;16.60;99.90
34740;DHT22;20967;48.442;9.994;2023-05-10T13:27:50;16.50;99.90
34740;DHT22;20967;48.442;9.994;2023-05-10T13:30:18;16.50;99.90
34740;DHT22;20967;48.442;9.994;2023-05-10T13:32:46;16.50;99.90
34740;DHT22;20967;48.442;9.994;2023-05-10T13:35:13;16.70;99.90
34740;DHT22;20967;48.442;9.994;2023-05-10T13:37:42;16.60;99.90
34740;DHT22;20967;48.442;9.994;2023-05-10T13:40:09;16.70;99.90
34740;DHT22;20967;48.442;9.994;2023-05-10T13:42:37;16.50;99.90
34740;DHT22;20967;48.442;9.994;2023-05-10T13:45:05;16.40;99.90
34740;DHT22;20967;48.442;9.994;2023-05-10T13:47:33;16.60;99.90
34740;DHT22;20967;48.442;9.994;2023-05-10T13:50:01;16.70;99.90
34740;DHT22;20967;48.442;9.994;2023-05-10T13:52:30;16.90;99.90
34740;DHT22;20967;48.442;9.994;2023-05-10T13:54:57;16.90;99.90
34740;DHT22;20967;48.442;9.994;2023-05-10T13:57:25;16.90;99.90
34740;DHT22;20967;48.442;9.994;2023-05-10T13:59:53;17.20;99.90
34740;DHT22;20967;48.442;9.994;2023-05-10T14:02:21;17.30;99.90
34740;DHT22;20967;48.442;9.994;2023-05-10T14:04:48;17.50;99.90
34740;DHT22;20967;48.442;9.994;2023-05-10T14:07:16;17.60;99.90
34740;DHT22;20967;48.442;9.994;2023-05-10T14:09:44;17.60;99.90
34740;DHT22;20967;48.442;9.994;2023-05-10T14:12:12;17.90;99.90
34740;DHT22;20967;48.442;9.994;2023-05-10T14:14:41;18.00;99.90
34740;DHT22;20967;48.442;9.994;2023-05-10T14:17:09;18.20;99.90
34740;DHT22;20967;48.442;9.994;2023-05-10T14:19:36;18.40;99.90
34740;DHT22;20967;48.442;9.994;2023-05-10T14:22:06;18.50;99.90
34740;DHT22;20967;48.442;9.994;2023-05-10T14:24:33;18.70;99.90
34740;DHT22;20967;48.442;9.994;2023-05-10T14:27:01;18.80;99.90
34740;DHT22;20967;48.442;9.994;2023-05-10T14:29:29;18.80;99.90
34740;DHT22;20967;48.442;9.994;2023-05-10T14:31:57;19.00;99.90
34740;DHT22;20967;48.442;9.994;2023-05-10T14:34:24;19.10;99.90
34740;DHT22;20967;48.442;9.994;2023-05-10T14:36:52;19.00;99.90
34740;DHT22;20967;48.442;9.994;2023-05-10T14:39:20;19.00;99.90
34740;DHT22;20967;48.442;9.994;2023-05-10T14:41:48;18.90;99.90
34740;DHT22;20967;48.442;9.994;2023-05-10T14:44:15;19.00;99.90
34740;DHT22;20967;48.442;9.994;2023-05-10T14:46:43;19.00;99.90
34740;DHT22;20967;48.442;9.994;2023-05-10T14:49:11;19.10;99.90
34740;DHT22;20967;48.442;9.994;2023-05-10T14:51:39;18.90;99.90
34740;DHT22;20967;48.442;9.994;2023-05-10T14:54:07;18.90;99.90
34740;DHT22;20967;48.442;9.994;2023-05-10T14:56:34;19.00;99.90
34740;DHT22;20967;48.442;9.994;2023-05-10T14:59:03;19.00;99.90
34740;DHT22;20967;48.442;9.994;2023-05-10T15:01:31;19.10;99.90
34740;DHT22;20967;48.442;9.994;2023-05-10T15:03:59;19.20;99.90
34740;DHT22;20967;48.442;9.994;2023-05-10T15:06:36;19.10;99.90
34740;DHT22;20967;48.442;9.994;2023-05-10T15:09:03;19.20;99.90
34740;DHT22;20967;48.442;9.994;2023-05-10T15:11:30;19.10;99.90
34740;DHT22;20967;48.442;9.994;2023-05-10T15:13:58;19.20;99.90
34740;DHT22;20967;48.442;9.994;2023-05-10T15:16:26;19.00;99.90
34740;DHT22;20967;48.442;9.994;2023-05-10T15:18:54;19.00;99.90
34740;DHT22;20967;48.442;9.994;2023-05-10T15:21:22;19.10;99.90
34740;DHT22;20967;48.442;9.994;2023-05-10T15:23:49;18.80;99.90
34740;DHT22;20967;48.442;9.994;2023-05-10T15:26:17;18.60;99.90
34740;DHT22;20967;48.442;9.994;2023-05-10T15:28:45;18.20;99.90
34740;DHT22;20967;48.442;9.994;2023-05-10T15:31:13;18.10;99.90
34740;DHT22;20967;48.442;9.994;2023-05-10T15:33:45;17.80;99.90
34740;DHT22;20967;48.442;9.994;2023-05-10T15:36:12;17.80;99.90
34740;DHT22;20967;48.442;9.994;2023-05-10T15:38:40;17.80;99.90
34740;DHT22;20967;48.442;9.994;2023-05-10T15:41:07;17.80;99.90
34740;DHT22;20967;48.442;9.994;2023-05-10T15:43:35;18.00;99.90
34740;DHT22;20967;48.442;9.994;2023-05-10T15:46:03;17.80;99.90
34740;DHT22;20967;48.442;9.994;2023-05-10T15:48:32;17.70;99.90
34740;DHT22;20967;48.442;9.994;2023-05-10T15:51:00;17.50;99.90
34740;DHT22;20967;48.442;9.994;2023-05-10T15:53:28;17.50;99.90
34740;DHT22;20967;48.442;9.994;2023-05-10T15:55:55;17.70;99.90
34740;DHT22;20967;48.442;9.994;2023-05-10T15:58:23;17.70;99.90
34740;DHT22;20967;48.442;9.994;2023-05-10T16:00:51;17.80;99.90
34740;DHT22;20967;48.442;9.994;2023-05-10T16:03:19;17.90;99.90
34740;DHT22;20967;48.442;9.994;2023-05-10T16:05:46;17.80;99.90